Time;durP1;ratioP1;P1;durP2;ratioP2;P2;SDS_P1;SDS_P2;PMS_P1;PMS_P2;Temp;Humidity;BMP_temperature;BMP_pressure;BME280_temperature;BME280_humidity;BME280_pressure;Samples;Min_cycle;Max_cycle;Signal;HPM_P1;HPM_P2
2020/12/25 00:00:27;;;;;;;0.88;0.88;;;1.70;99.90;;;;;;5083700;28;20319;-78
2020/12/25 00:02:54;;;;;;;0.90;0.90;;;1.70;99.90;;;;;;5087615;28;20241;-78
2020/12/25 00:05:20;;;;;;;0.80;0.80;;;1.70;99.90;;;;;;5085629;28;20230;-78
2020/12/25 00:07:47;;;;;;;1.10;1.10;;;1.70;99.90;;;;;;5084260;28;20684;-78
2020/12/25 00:10:13;;;;;;;1.38;0.70;;;1.70;99.90;;;;;;5086487;28;20191;-78
2020/12/25 00:12:43;;;;;;;0.90;0.90;;;1.80;99.90;;;;;;5086234;28;20195;-79
2020/12/25 00:15:10;;;;;;;0.60;0.50;;;1.70;99.90;;;;;;5085543;28;20281;-78
2020/12/25 00:17:36;;;;;;;0.75;0.75;;;1.70;99.90;;;;;;5086900;28;20222;-78
2020/12/25 00:20:03;;;;;;;0.50;0.50;;;1.80;99.90;;;;;;5084367;28;20652;-78
2020/12/25 00:22:30;;;;;;;0.85;0.85;;;1.80;99.90;;;;;;5092539;28;20233;-78
2020/12/25 00:24:56;;;;;;;0.90;0.90;;;1.90;99.90;;;;;;5084513;28;20195;-79
2020/12/25 00:27:22;;;;;;;0.70;0.70;;;2.00;99.90;;;;;;5075086;28;20557;-79
2020/12/25 00:29:50;;;;;;;0.70;0.70;;;1.90;99.90;;;;;;5086849;28;20226;-78
2020/12/25 00:32:16;;;;;;;0.80;0.80;;;1.90;99.90;;;;;;5073802;28;20206;-78
2020/12/25 00:34:42;;;;;;;0.65;0.65;;;1.90;99.90;;;;;;5088330;28;20241;-79
2020/12/25 00:37:09;;;;;;;1.27;1.10;;;2.10;99.90;;;;;;5071884;28;20219;-79
2020/12/25 00:39:39;;;;;;;1.27;1.17;;;1.90;99.90;;;;;;5075103;28;20210;-78
2020/12/25 00:42:05;;;;;;;1.30;1.20;;;1.80;99.90;;;;;;5091126;28;20203;-79
2020/12/25 00:44:32;;;;;;;1.50;1.40;;;1.80;99.90;;;;;;5084068;28;20665;-78
2020/12/25 00:46:59;;;;;;;1.40;1.30;;;1.80;99.90;;;;;;5075576;28;20554;-79
2020/12/25 00:49:25;;;;;;;1.45;1.35;;;1.70;99.90;;;;;;5088022;28;20234;-78
2020/12/25 00:51:52;;;;;;;1.60;1.50;;;1.80;99.90;;;;;;5071898;28;20725;-78
2020/12/25 00:54:18;;;;;;;2.22;2.10;;;1.90;99.90;;;;;;5076989;28;20214;-78
2020/12/25 00:56:44;;;;;;;1.85;1.70;;;2.00;99.90;;;;;;5092568;28;20198;-78
2020/12/25 00:59:11;;;;;;;2.25;1.77;;;1.90;99.90;;;;;;5089871;28;20690;-79
2020/12/25 01:01:37;;;;;;;20.30;14.00;;;1.90;99.90;;;;;;5092164;28;20252;-78
2020/12/25 01:04:05;;;;;;;1.42;1.33;;;1.90;99.90;;;;;;5086489;28;20198;-78
2020/12/25 01:06:32;;;;;;;2.53;2.17;;;1.70;99.90;;;;;;5072086;28;20207;-77
2020/12/25 01:08:58;;;;;;;2.00;1.90;;;1.70;99.90;;;;;;5080252;28;20296;-77
2020/12/25 01:11:26;;;;;;;1.85;1.75;;;1.70;99.90;;;;;;5091756;28;20562;-77
2020/12/25 01:13:52;;;;;;;1.90;1.80;;;1.70;99.90;;;;;;5091146;28;20223;-77
2020/12/25 01:16:19;;;;;;;2.15;1.95;;;1.70;99.90;;;;;;5091699;28;20197;-77
2020/12/25 01:18:46;;;;;;;2.33;2.13;;;1.80;99.90;;;;;;5090161;28;20199;-77
2020/12/25 01:21:15;;;;;;;2.55;2.35;;;1.70;99.90;;;;;;5090346;28;20187;-77
2020/12/25 01:23:42;;;;;;;1.58;1.48;;;1.70;99.90;;;;;;5091395;28;20207;-77
2020/12/25 01:26:09;;;;;;;1.98;1.88;;;1.70;99.90;;;;;;5075766;28;20187;-77
2020/12/25 01:28:37;;;;;;;2.00;1.90;;;1.90;99.90;;;;;;5087842;28;20301;-77
2020/12/25 01:31:04;;;;;;;2.85;2.30;;;2.00;99.90;;;;;;5089090;28;20222;-77
2020/12/25 01:33:30;;;;;;;2.70;2.50;;;1.90;99.90;;;;;;5089068;28;20191;-77
2020/12/25 01:35:57;;;;;;;2.58;2.40;;;1.90;99.90;;;;;;5091611;28;20199;-77
2020/12/25 01:38:24;;;;;;;3.08;2.88;;;2.00;99.90;;;;;;5088890;28;20194;-77
2020/12/25 01:40:50;;;;;;;2.72;2.45;;;2.00;99.90;;;;;;5080944;28;20234;-77
2020/12/25 01:43:17;;;;;;;2.15;2.05;;;1.90;99.90;;;;;;5088651;28;20227;-78
2020/12/25 01:45:43;;;;;;;2.63;2.40;;;1.90;99.90;;;;;;5086541;28;20241;-77
2020/12/25 01:48:11;;;;;;;2.65;2.45;;;2.00;99.90;;;;;;5077782;28;20219;-77
2020/12/25 01:50:37;;;;;;;2.33;2.13;;;2.00;99.90;;;;;;5075015;28;20604;-77
2020/12/25 01:53:08;;;;;;;3.10;2.80;;;2.00;99.90;;;;;;5070559;28;20195;-77
2020/12/25 01:55:37;;;;;;;4.10;3.08;;;2.20;99.90;;;;;;5075989;28;20207;-77
2020/12/25 01:58:04;;;;;;;3.80;3.42;;;2.10;99.90;;;;;;5070278;28;20192;-77
2020/12/25 02:00:31;;;;;;;4.68;4.22;;;2.80;99.90;;;;;;5075941;28;20207;-77
2020/12/25 02:02:58;;;;;;;3.67;3.20;;;2.10;99.90;;;;;;5070892;28;20199;-77
2020/12/25 02:05:26;;;;;;;4.68;3.72;;;2.10;99.90;;;;;;5072431;28;20195;-77
2020/12/25 02:07:55;;;;;;;4.80;4.30;;;2.10;99.90;;;;;;5070279;28;20222;-77
2020/12/25 02:10:25;;;;;;;3.13;2.90;;;2.00;99.90;;;;;;5079437;28;20196;-77
2020/12/25 02:12:53;;;;;;;5.45;4.50;;;2.00;99.90;;;;;;5071121;28;20688;-77
2020/12/25 02:15:21;;;;;;;5.25;4.80;;;2.00;99.90;;;;;;5074790;28;20199;-77
2020/12/25 02:17:49;;;;;;;4.40;4.00;;;2.00;99.90;;;;;;5070975;28;20253;-77
2020/12/25 02:20:20;;;;;;;5.18;4.05;;;2.10;99.90;;;;;;5072125;28;20203;-77
2020/12/25 02:22:48;;;;;;;5.03;4.50;;;2.10;99.90;;;;;;5070681;28;20222;-77
2020/12/25 02:25:16;;;;;;;5.18;4.68;;;2.00;99.90;;;;;;5090543;28;20186;-77
2020/12/25 02:27:43;;;;;;;5.20;4.63;;;2.10;99.90;;;;;;5090195;28;20215;-77
2020/12/25 02:30:11;;;;;;;5.90;5.03;;;2.10;99.90;;;;;;5083590;28;20198;-77
2020/12/25 02:32:38;;;;;;;4.97;4.57;;;2.00;99.90;;;;;;5084505;28;20277;-77
2020/12/25 02:35:09;;;;;;;4.90;4.45;;;2.10;99.90;;;;;;5084863;28;20237;-78
2020/12/25 02:37:36;;;;;;;7.85;5.97;;;2.10;99.90;;;;;;5084292;28;20198;-77
2020/12/25 02:40:05;;;;;;;6.38;5.70;;;2.10;99.90;;;;;;5079855;28;20203;-77
2020/12/25 02:42:33;;;;;;;6.85;5.53;;;2.20;99.90;;;;;;5076455;28;20344;-78
2020/12/25 02:44:59;;;;;;;4.35;3.95;;;2.20;99.90;;;;;;5077923;28;20196;-77
2020/12/25 02:47:26;;;;;;;5.15;4.65;;;2.10;99.90;;;;;;5082968;28;20245;-78
2020/12/25 02:49:52;;;;;;;7.60;5.70;;;2.10;99.90;;;;;;5086245;28;20191;-78
2020/12/25 02:52:19;;;;;;;6.65;5.05;;;2.10;99.90;;;;;;5074254;28;20576;-78
2020/12/25 02:54:45;;;;;;;6.45;5.30;;;2.10;99.90;;;;;;5083865;28;20225;-78
2020/12/25 02:57:12;;;;;;;8.18;5.45;;;2.00;99.90;;;;;;5094094;28;20201;-78
2020/12/25 02:59:39;;;;;;;7.78;6.53;;;2.10;99.90;;;;;;5085457;28;20668;-77
2020/12/25 03:02:05;;;;;;;6.50;4.53;;;2.20;99.90;;;;;;5073798;28;20264;-78
2020/12/25 03:04:31;;;;;;;10.73;6.28;;;2.30;99.90;;;;;;5083075;28;20196;-78
2020/12/25 03:06:58;;;;;;;6.70;5.18;;;2.20;99.90;;;;;;5073561;28;20245;-78
2020/12/25 03:09:24;;;;;;;6.78;5.90;;;2.20;99.90;;;;;;5078231;28;20619;-78
2020/12/25 03:11:51;;;;;;;6.30;5.70;;;2.20;99.90;;;;;;5075954;28;20223;-78
2020/12/25 03:14:18;;;;;;;7.32;6.20;;;2.20;99.90;;;;;;5089140;28;20671;-78
2020/12/25 03:16:44;;;;;;;6.82;5.57;;;2.20;99.90;;;;;;5074367;28;20235;-78
2020/12/25 03:19:11;;;;;;;6.65;5.28;;;2.20;99.90;;;;;;5077223;28;20192;-78
2020/12/25 03:21:37;;;;;;;7.30;6.05;;;2.20;99.90;;;;;;5074359;28;20195;-78
2020/12/25 03:24:03;;;;;;;6.50;5.85;;;2.30;99.90;;;;;;5076200;28;20199;-78
2020/12/25 03:26:30;;;;;;;9.00;5.90;;;2.30;99.90;;;;;;5093999;28;20195;-78
2020/12/25 03:28:56;;;;;;;5.95;5.30;;;2.40;99.90;;;;;;5084726;28;20211;-78
2020/12/25 03:31:23;;;;;;;6.97;5.93;;;2.40;99.90;;;;;;5091551;28;20199;-78
2020/12/25 03:33:50;;;;;;;8.85;6.95;;;2.40;99.90;;;;;;5087494;28;20214;-78
2020/12/25 03:36:16;;;;;;;7.15;6.45;;;2.40;99.90;;;;;;5092309;28;20255;-77
2020/12/25 03:38:43;;;;;;;6.32;5.55;;;2.30;99.90;;;;;;5088187;28;20210;-78
2020/12/25 03:41:09;;;;;;;6.72;5.53;;;2.40;99.90;;;;;;5094057;28;20202;-78
2020/12/25 03:43:35;;;;;;;5.20;4.70;;;2.40;99.90;;;;;;5091124;28;20195;-78
2020/12/25 03:46:02;;;;;;;7.10;5.32;;;2.50;99.90;;;;;;5091576;28;20195;-78
2020/12/25 03:48:29;;;;;;;5.60;4.93;;;2.50;99.90;;;;;;5074006;28;20593;-78
2020/12/25 03:50:55;;;;;;;7.70;5.30;;;2.60;99.90;;;;;;5077392;28;20202;-78
2020/12/25 03:53:22;;;;;;;7.20;5.03;;;2.50;99.90;;;;;;5076988;28;20233;-78
2020/12/25 03:55:48;;;;;;;5.75;5.15;;;2.50;99.90;;;;;;5074818;28;20226;-78
2020/12/25 03:58:15;;;;;;;5.95;5.25;;;2.50;99.90;;;;;;5073574;28;20188;-78
2020/12/25 04:00:41;;;;;;;6.63;5.10;;;2.50;99.90;;;;;;5080586;28;20199;-78
2020/12/25 04:03:08;;;;;;;5.82;5.30;;;2.50;99.90;;;;;;5074306;28;20253;-78
2020/12/25 04:05:36;;;;;;;6.93;4.75;;;2.30;99.90;;;;;;5077413;28;20210;-78
2020/12/25 04:08:02;;;;;;;5.95;5.35;;;2.30;99.90;;;;;;5072373;28;20269;-78
2020/12/25 04:10:28;;;;;;;11.75;5.55;;;2.40;99.90;;;;;;5076466;28;20188;-77
2020/12/25 04:12:55;;;;;;;5.03;4.53;;;2.20;99.90;;;;;;5072589;28;20202;-78
2020/12/25 04:15:22;;;;;;;6.35;5.53;;;2.30;99.90;;;;;;5073710;28;20252;-78
2020/12/25 04:17:48;;;;;;;9.32;6.78;;;2.30;99.90;;;;;;5090672;28;20202;-78
2020/12/25 04:20:15;;;;;;;6.90;5.65;;;2.40;99.90;;;;;;5081879;28;20206;-78
2020/12/25 04:22:42;;;;;;;7.30;6.15;;;2.30;99.90;;;;;;5073078;28;20268;-78
2020/12/25 04:25:08;;;;;;;7.28;6.13;;;2.30;99.90;;;;;;5074296;28;20231;-78
2020/12/25 04:27:34;;;;;;;8.30;6.35;;;2.30;99.90;;;;;;5071928;28;20783;-77
2020/12/25 04:30:01;;;;;;;7.28;6.55;;;2.30;99.90;;;;;;5084162;28;20206;-78
2020/12/25 04:32:27;;;;;;;7.63;5.97;;;2.40;99.90;;;;;;5092654;28;20672;-78
2020/12/25 04:34:54;;;;;;;7.97;5.85;;;2.30;99.90;;;;;;5082354;28;20241;-78
2020/12/25 04:37:20;;;;;;;6.82;5.93;;;2.30;99.90;;;;;;5071934;28;20210;-78
2020/12/25 04:39:47;;;;;;;6.15;5.45;;;2.30;99.90;;;;;;5080378;28;20266;-78
2020/12/25 04:42:14;;;;;;;7.20;5.43;;;2.20;99.90;;;;;;5092724;28;20221;-78
2020/12/25 04:44:40;;;;;;;7.00;5.50;;;2.30;99.90;;;;;;5081537;28;20199;-78
2020/12/25 04:47:10;;;;;;;5.45;4.82;;;2.10;99.90;;;;;;5083003;28;20272;-78
2020/12/25 04:49:37;;;;;;;5.65;5.05;;;2.10;99.90;;;;;;5087774;28;20531;-78
2020/12/25 04:52:04;;;;;;;5.65;4.95;;;2.20;99.90;;;;;;5092598;28;20567;-78
2020/12/25 04:54:31;;;;;;;6.20;4.18;;;2.30;99.90;;;;;;5087146;28;20217;-78
2020/12/25 04:56:59;;;;;;;5.10;4.60;;;2.30;99.90;;;;;;5091856;28;20237;-78
2020/12/25 04:59:27;;;;;;;5.18;4.47;;;2.20;99.90;;;;;;5089151;28;20533;-78
2020/12/25 05:01:55;;;;;;;6.90;4.93;;;2.30;99.90;;;;;;5091289;28;20660;-78
2020/12/25 05:04:23;;;;;;;5.82;5.20;;;2.20;99.90;;;;;;5081717;28;20197;-78
2020/12/25 05:06:50;;;;;;;7.43;5.97;;;2.30;99.90;;;;;;5091106;28;20190;-78
2020/12/25 05:09:17;;;;;;;5.47;4.72;;;2.30;99.90;;;;;;5084080;28;20218;-78
2020/12/25 05:11:43;;;;;;;6.03;5.20;;;2.30;99.90;;;;;;5092488;28;20199;-78
2020/12/25 05:14:11;;;;;;;7.20;5.28;;;2.30;99.90;;;;;;5086400;28;20614;-78
2020/12/25 05:16:39;;;;;;;5.93;5.35;;;2.30;99.90;;;;;;5092268;28;20195;-78
2020/12/25 05:19:08;;;;;;;6.85;5.85;;;2.30;99.90;;;;;;5082375;28;20230;-78
2020/12/25 05:21:40;;;;;;;8.23;5.78;;;2.40;99.90;;;;;;5074525;28;20191;-78
2020/12/25 05:24:07;;;;;;;6.80;5.38;;;3.30;99.90;;;;;;5088252;28;20198;-78
2020/12/25 05:26:34;;;;;;;6.13;5.32;;;2.30;99.90;;;;;;5072402;28;20563;-78
2020/12/25 05:29:01;;;;;;;5.57;4.63;;;2.30;99.90;;;;;;5072945;28;20311;-78
2020/12/25 05:31:28;;;;;;;6.95;5.30;;;2.30;99.90;;;;;;5075359;28;20269;-80
2020/12/25 05:33:58;;;;;;;5.72;5.10;;;2.40;99.90;;;;;;5071526;28;20196;-79
2020/12/25 05:36:29;;;;;;;4.93;4.40;;;2.50;99.90;;;;;;5092078;28;20902;-79
2020/12/25 05:38:56;;;;;;;7.10;5.32;;;2.40;99.90;;;;;;5090900;28;20203;-79
2020/12/25 05:41:25;;;;;;;5.10;4.60;;;2.40;99.90;;;;;;5090475;28;20202;-80
2020/12/25 05:43:53;;;;;;;6.00;5.40;;;2.40;99.90;;;;;;5088132;28;20198;-80
2020/12/25 05:46:20;;;;;;;5.60;4.45;;;2.30;99.90;;;;;;5091254;28;20195;-79
2020/12/25 05:48:52;;;;;;;5.78;5.18;;;2.40;99.90;;;;;;5090610;28;20900;-80
2020/12/25 05:51:18;;;;;;;6.13;5.55;;;2.30;99.90;;;;;;5074523;28;20226;-80
2020/12/25 05:53:45;;;;;;;6.13;5.03;;;2.30;99.90;;;;;;5074753;28;20234;-79
2020/12/25 05:56:15;;;;;;;7.82;6.07;;;2.30;99.90;;;;;;5088216;28;20201;-80
2020/12/25 05:58:44;;;;;;;8.60;6.07;;;2.30;99.90;;;;;;5089182;28;20194;-79
2020/12/25 06:01:11;;;;;;;7.90;6.63;;;2.40;99.90;;;;;;5087825;28;20210;-80
2020/12/25 06:03:38;;;;;;;7.10;5.47;;;2.50;99.90;;;;;;5083396;28;20199;-80
2020/12/25 06:06:12;;;;;;;8.48;6.35;;;2.40;99.90;;;;;;5084844;28;20546;-79
2020/12/25 06:08:57;;;;;;;6.38;5.63;;;2.50;99.90;;;;;;5084200;28;20219;-80
2020/12/25 06:11:29;;;;;;;7.28;5.18;;;2.50;99.90;;;;;;5088821;28;20198;-80
2020/12/25 06:13:58;;;;;;;5.90;4.75;;;2.60;99.90;;;;;;5084277;28;20191;-80
2020/12/25 06:16:26;;;;;;;8.02;6.25;;;2.50;99.90;;;;;;5091325;28;20234;-80
2020/12/25 06:19:00;;;;;;;6.90;6.30;;;2.40;99.90;;;;;;5084109;28;20230;-80
2020/12/25 06:21:35;;;;;;;7.20;5.53;;;2.40;99.90;;;;;;5070347;28;20292;-80
2020/12/25 06:24:02;;;;;;;7.47;5.45;;;2.40;99.90;;;;;;5072168;28;20272;-79
2020/12/25 06:26:30;;;;;;;7.32;5.40;;;2.40;99.90;;;;;;5071997;28;20230;-80
2020/12/25 06:29:01;;;;;;;6.97;5.25;;;2.30;99.90;;;;;;5073465;28;20222;-80
2020/12/25 06:31:41;;;;;;;6.75;6.00;;;2.50;99.90;;;;;;5071139;28;20598;-80
2020/12/25 06:34:08;;;;;;;8.05;6.30;;;2.70;99.90;;;;;;5077131;28;20194;-80
2020/12/25 06:36:35;;;;;;;8.18;5.90;;;2.70;99.90;;;;;;5090657;28;20218;-80
2020/12/25 06:39:05;;;;;;;7.13;6.10;;;2.60;99.90;;;;;;5086597;28;20206;-80
2020/12/25 06:41:34;;;;;;;7.20;5.65;;;2.70;99.90;;;;;;5091203;28;20198;-80
2020/12/25 06:44:01;;;;;;;7.68;5.85;;;2.60;99.90;;;;;;5081112;28;20279;-79
2020/12/25 06:46:29;;;;;;;7.10;6.10;;;2.50;99.90;;;;;;5085039;28;20244;-80
2020/12/25 06:49:00;;;;;;;6.07;4.90;;;2.50;99.90;;;;;;5078254;28;20307;-80
2020/12/25 06:51:27;;;;;;;8.65;6.65;;;2.70;99.90;;;;;;5073565;28;20257;-80
2020/12/25 06:53:57;;;;;;;7.05;5.78;;;2.60;99.90;;;;;;5073338;28;20191;-79
2020/12/25 06:56:24;;;;;;;6.82;5.72;;;2.70;99.90;;;;;;5070503;28;20199;-80
2020/12/25 06:58:52;;;;;;;6.95;5.55;;;2.80;99.90;;;;;;5077140;28;20195;-80
2020/12/25 07:01:34;;;;;;;6.32;4.93;;;2.70;99.90;;;;;;5072285;28;20282;-80
2020/12/25 07:04:00;;;;;;;8.50;5.75;;;2.70;99.90;;;;;;5075639;28;20199;-79
2020/12/25 07:06:30;;;;;;;5.85;5.30;;;2.50;99.90;;;;;;5070995;28;20227;-80
2020/12/25 07:09:09;;;;;;;5.28;4.78;;;2.50;99.90;;;;;;5076814;28;20250;-79
2020/12/25 07:11:35;;;;;;;5.32;4.82;;;2.30;99.90;;;;;;5090706;28;20230;-79
2020/12/25 07:14:02;;;;;;;5.47;4.70;;;2.10;99.90;;;;;;5085954;28;20648;-79
2020/12/25 07:16:28;;;;;;;5.10;4.55;;;2.10;99.90;;;;;;5091090;28;20318;-79
2020/12/25 07:18:54;;;;;;;4.20;3.80;;;2.10;99.90;;;;;;5084015;28;20195;-80
2020/12/25 07:21:21;;;;;;;5.15;4.10;;;2.20;99.90;;;;;;5070587;28;20532;-80
2020/12/25 07:23:47;;;;;;;5.95;4.18;;;2.20;99.90;;;;;;5090739;28;20234;-79
2020/12/25 07:26:15;;;;;;;4.63;4.13;;;2.10;99.90;;;;;;5090368;28;20198;-79
2020/12/25 07:28:41;;;;;;;4.38;4.05;;;2.20;99.90;;;;;;5087351;28;20210;-79
2020/12/25 07:31:08;;;;;;;5.63;4.50;;;2.20;99.90;;;;;;5074038;28;20192;-79
2020/12/25 07:33:34;;;;;;;4.20;3.67;;;2.10;99.90;;;;;;5072365;28;20226;-79
2020/12/25 07:36:01;;;;;;;4.47;4.03;;;2.00;99.90;;;;;;5093200;28;20668;-79
2020/12/25 07:38:27;;;;;;;4.28;3.88;;;2.10;99.90;;;;;;5088183;28;20237;-79
2020/12/25 07:40:54;;;;;;;4.47;4.07;;;2.10;99.90;;;;;;5093415;28;20647;-80
2020/12/25 07:43:21;;;;;;;4.63;3.03;;;2.00;99.90;;;;;;5088578;28;20203;-80
2020/12/25 07:45:47;;;;;;;3.40;3.10;;;2.00;99.90;;;;;;5089220;28;20248;-80
2020/12/25 07:48:14;;;;;;;3.38;3.08;;;2.00;99.90;;;;;;5076259;28;20574;-80
2020/12/25 07:50:42;;;;;;;3.83;3.30;;;2.00;99.90;;;;;;5082575;28;20195;-80
2020/12/25 07:53:09;;;;;;;3.95;3.55;;;2.00;99.90;;;;;;5075279;28;20226;-80
2020/12/25 07:55:36;;;;;;;4.22;3.83;;;2.10;99.90;;;;;;5073973;28;20200;-80
2020/12/25 07:58:03;;;;;;;5.18;4.18;;;2.20;99.90;;;;;;5073330;28;20206;-80
2020/12/25 08:00:31;;;;;;;3.85;3.55;;;2.20;99.90;;;;;;5082395;28;20203;-80
2020/12/25 08:02:58;;;;;;;4.13;3.47;;;2.20;99.90;;;;;;5073636;28;20199;-80
2020/12/25 08:05:27;;;;;;;4.30;3.55;;;2.10;99.90;;;;;;5091973;28;20218;-80
2020/12/25 08:07:53;;;;;;;4.20;3.63;;;2.10;99.90;;;;;;5092873;28;20703;-80
2020/12/25 08:10:21;;;;;;;6.43;4.63;;;2.10;99.90;;;;;;5088836;28;20206;-80
2020/12/25 08:12:49;;;;;;;3.75;3.40;;;2.10;99.90;;;;;;5090936;28;20275;-80
2020/12/25 08:15:18;;;;;;;3.33;3.03;;;2.20;99.90;;;;;;5072569;28;20245;-80
2020/12/25 08:17:49;;;;;;;6.32;4.15;;;2.30;99.90;;;;;;5072974;28;20231;-80
2020/12/25 08:20:15;;;;;;;4.57;4.10;;;2.30;99.90;;;;;;5073260;28;20202;-80
2020/12/25 08:22:41;;;;;;;6.05;4.65;;;2.40;99.90;;;;;;5072566;28;20223;-80
2020/12/25 08:25:08;;;;;;;5.35;4.47;;;2.40;99.90;;;;;;5071724;28;20525;-80
2020/12/25 08:27:36;;;;;;;5.05;4.35;;;2.30;99.90;;;;;;5084131;28;20220;-80
2020/12/25 08:30:04;;;;;;;7.72;5.93;;;2.40;99.90;;;;;;5082258;28;20651;-80
2020/12/25 08:32:32;;;;;;;8.18;5.47;;;2.40;99.90;;;;;;5073790;28;20199;-80
2020/12/25 08:35:13;;;;;;;8.75;6.10;;;2.30;99.90;;;;;;5091689;28;20190;-80
2020/12/25 08:37:40;;;;;;;8.32;6.00;;;2.10;99.90;;;;;;5091277;28;20240;-80
2020/12/25 08:40:16;;;;;;;8.73;6.30;;;2.20;99.90;;;;;;5085640;28;20226;-80
2020/12/25 08:42:43;;;;;;;10.95;7.32;;;2.20;99.90;;;;;;5092027;28;20257;-80
2020/12/25 08:45:10;;;;;;;10.93;7.72;;;2.30;99.90;;;;;;5087264;28;20241;-81
2020/12/25 08:47:36;;;;;;;13.55;8.65;;;2.00;99.90;;;;;;5076388;28;20203;-80
2020/12/25 08:50:04;;;;;;;18.45;9.95;;;2.10;99.90;;;;;;5088429;28;20603;-80
2020/12/25 08:52:33;;;;;;;13.90;8.70;;;2.30;99.90;;;;;;5072375;28;20248;-80
2020/12/25 08:55:00;;;;;;;10.45;9.35;;;2.30;99.90;;;;;;5077945;28;20199;-79
2020/12/25 08:57:28;;;;;;;16.45;9.90;;;2.40;99.90;;;;;;5071896;28;20207;-81
2020/12/25 09:00:04;;;;;;;15.70;8.55;;;2.40;99.90;;;;;;5090042;28;20230;-80
2020/12/25 09:02:30;;;;;;;12.82;9.32;;;2.40;99.90;;;;;;5092515;28;20206;-81
2020/12/25 09:04:57;;;;;;;14.02;10.05;;;2.40;99.90;;;;;;5092157;28;20260;-81
2020/12/25 09:07:23;;;;;;;15.20;9.65;;;2.50;99.90;;;;;;5092051;28;20221;-81
2020/12/25 09:09:50;;;;;;;13.18;8.38;;;2.60;99.90;;;;;;5082877;28;20230;-80
2020/12/25 09:12:17;;;;;;;13.30;9.73;;;2.60;99.90;;;;;;5085847;28;20726;-81
2020/12/25 09:14:43;;;;;;;15.73;10.77;;;2.70;99.90;;;;;;5088370;28;20187;-81
2020/12/25 09:17:10;;;;;;;11.63;9.10;;;2.70;99.90;;;;;;5083309;28;20663;-80
2020/12/25 09:19:36;;;;;;;18.10;11.57;;;2.80;99.90;;;;;;5072623;28;20203;-81
2020/12/25 09:22:02;;;;;;;15.85;11.50;;;2.80;99.90;;;;;;5070727;28;20230;-80
2020/12/25 09:24:29;;;;;;;11.45;9.32;;;3.00;99.90;;;;;;5081951;28;20688;-81
2020/12/25 09:26:56;;;;;;;14.25;10.25;;;3.00;99.90;;;;;;5070453;28;20222;-81
2020/12/25 09:29:22;;;;;;;19.48;10.88;;;3.10;99.90;;;;;;5083504;28;20211;-81
2020/12/25 09:31:49;;;;;;;13.88;8.50;;;3.10;99.90;;;;;;5071663;28;20195;-81
2020/12/25 09:34:15;;;;;;;16.42;10.23;;;2.90;99.90;;;;;;5082573;28;20194;-81
2020/12/25 09:36:43;;;;;;;13.00;8.20;;;2.90;99.90;;;;;;5081068;28;20283;-81
2020/12/25 09:39:10;;;;;;;10.93;9.23;;;2.90;99.90;;;;;;5085855;28;20194;-81
2020/12/25 09:41:36;;;;;;;12.65;9.18;;;2.80;99.90;;;;;;5087389;28;20624;-82
2020/12/25 09:44:04;;;;;;;14.70;9.70;;;2.90;99.90;;;;;;5083501;28;20184;-81
2020/12/25 09:46:30;;;;;;;12.32;9.38;;;3.00;99.90;;;;;;5091057;28;20201;-81
2020/12/25 09:48:58;;;;;;;17.13;10.07;;;2.70;99.90;;;;;;5088921;28;20222;-84
2020/12/25 09:51:25;;;;;;;17.60;10.85;;;2.70;99.90;;;;;;5095096;28;20707;-84
2020/12/25 09:53:52;;;;;;;13.60;9.30;;;2.70;99.90;;;;;;5085025;28;20198;-84
2020/12/25 09:56:20;;;;;;;14.82;9.45;;;2.70;99.90;;;;;;5083010;28;20648;-83
2020/12/25 09:58:46;;;;;;;10.75;8.73;;;3.10;99.90;;;;;;5091125;28;20213;-82
2020/12/25 10:01:14;;;;;;;11.82;8.98;;;2.90;99.90;;;;;;5073026;28;20226;-82
2020/12/25 10:03:40;;;;;;;11.88;10.18;;;3.00;99.90;;;;;;5071079;28;20280;-82
2020/12/25 10:06:06;;;;;;;14.73;9.27;;;3.00;99.90;;;;;;5088740;28;20241;-82
2020/12/25 10:08:33;;;;;;;12.00;8.43;;;3.00;99.90;;;;;;5089465;28;20259;-82
2020/12/25 10:10:59;;;;;;;14.02;9.77;;;3.10;99.90;;;;;;5077760;28;20575;-81
2020/12/25 10:13:25;;;;;;;14.15;10.52;;;3.20;99.90;;;;;;5088662;28;20811;-82
2020/12/25 10:15:53;;;;;;;10.98;9.23;;;3.40;99.90;;;;;;5075368;28;20202;-82
2020/12/25 10:18:21;;;;;;;10.68;7.00;;;3.50;99.90;;;;;;5084038;28;20285;-83
2020/12/25 10:20:48;;;;;;;11.15;7.95;;;3.50;99.90;;;;;;5076288;28;20204;-85
2020/12/25 10:23:14;;;;;;;11.00;8.88;;;3.60;99.90;;;;;;5083028;28;20223;-86
2020/12/25 10:25:42;;;;;;;12.63;8.20;;;3.70;99.90;;;;;;5075443;28;20191;-83
2020/12/25 10:28:09;;;;;;;8.57;6.72;;;3.80;99.90;;;;;;5070430;28;20273;-82
2020/12/25 10:30:35;;;;;;;9.85;6.28;;;3.80;99.90;;;;;;5071877;28;20211;-82
2020/12/25 10:33:02;;;;;;;10.50;6.43;;;3.70;99.90;;;;;;5071390;28;20657;-83
2020/12/25 10:35:29;;;;;;;9.13;6.05;;;3.50;99.90;;;;;;5083713;28;20205;-83
2020/12/25 10:37:55;;;;;;;7.10;6.43;;;3.90;99.90;;;;;;5090332;28;20747;-82
2020/12/25 10:40:23;;;;;;;7.72;6.07;;;4.00;99.90;;;;;;5077100;28;20230;-83
2020/12/25 10:42:49;;;;;;;11.82;7.30;;;4.00;99.90;;;;;;5088007;28;20207;-83
2020/12/25 10:45:16;;;;;;;8.75;6.13;;;3.60;99.90;;;;;;5089014;28;20559;-83
2020/12/25 10:47:42;;;;;;;7.82;5.55;;;3.60;99.90;;;;;;5073813;28;20192;-83
2020/12/25 10:50:09;;;;;;;10.80;8.23;;;3.30;99.90;;;;;;5083335;28;20232;-82
2020/12/25 10:52:36;;;;;;;7.70;6.97;;;3.20;99.90;;;;;;5089933;28;20194;-83
2020/12/25 10:55:03;;;;;;;8.55;6.30;;;3.30;99.90;;;;;;5078013;28;20542;-82
2020/12/25 10:57:29;;;;;;;10.63;7.25;;;3.10;99.90;;;;;;5074138;28;20778;-82
2020/12/25 10:59:55;;;;;;;9.50;7.82;;;3.50;99.90;;;;;;5079746;28;20636;-83
2020/12/25 11:02:22;;;;;;;11.82;8.02;;;3.50;99.90;;;;;;5090230;28;20205;-83
2020/12/25 11:04:48;;;;;;;8.90;7.55;;;3.40;99.90;;;;;;5085651;28;20195;-82
2020/12/25 11:07:15;;;;;;;9.27;6.65;;;3.10;99.90;;;;;;5088956;28;20248;-83
2020/12/25 11:09:42;;;;;;;9.23;7.22;;;3.20;99.90;;;;;;5091392;28;20565;-83
2020/12/25 11:12:08;;;;;;;6.25;5.28;;;3.10;99.90;;;;;;5094204;28;20248;-83
2020/12/25 11:14:35;;;;;;;8.20;6.97;;;2.90;99.90;;;;;;5090265;28;20195;-83
2020/12/25 11:17:01;;;;;;;7.70;6.45;;;3.00;99.90;;;;;;5092932;28;20186;-82
2020/12/25 11:19:28;;;;;;;9.00;6.72;;;3.10;99.90;;;;;;5087183;28;20191;-83
2020/12/25 11:21:54;;;;;;;7.95;5.95;;;3.20;99.90;;;;;;5073051;28;20203;-83
2020/12/25 11:24:20;;;;;;;7.93;7.10;;;2.80;99.90;;;;;;5088376;28;20199;-83
2020/12/25 11:26:48;;;;;;;8.90;6.13;;;3.00;99.90;;;;;;5073340;28;20196;-83
2020/12/25 11:29:14;;;;;;;6.78;6.07;;;2.70;99.90;;;;;;5085771;28;20253;-83
2020/12/25 11:31:41;;;;;;;7.90;6.55;;;2.60;99.90;;;;;;5073127;28;20211;-83
2020/12/25 11:34:07;;;;;;;8.65;6.47;;;2.80;99.90;;;;;;5083789;28;20203;-83
2020/12/25 11:36:35;;;;;;;8.05;5.90;;;2.80;99.90;;;;;;5070659;28;20297;-83
2020/12/25 11:39:01;;;;;;;8.13;5.88;;;2.70;99.90;;;;;;5086066;28;20673;-83
2020/12/25 11:41:28;;;;;;;7.50;6.10;;;2.80;99.90;;;;;;5073156;28;20202;-82
2020/12/25 11:43:55;;;;;;;9.20;6.15;;;2.90;99.90;;;;;;5080536;28;20621;-82
2020/12/25 11:46:23;;;;;;;8.18;6.70;;;2.70;99.90;;;;;;5078806;28;20195;-82
2020/12/25 11:48:50;;;;;;;8.60;5.90;;;2.60;99.90;;;;;;5078187;28;20261;-82
2020/12/25 11:51:18;;;;;;;10.45;5.97;;;2.60;99.90;;;;;;5073357;28;20242;-83
2020/12/25 11:53:45;;;;;;;8.43;6.30;;;2.70;99.90;;;;;;5077153;28;20187;-83
2020/12/25 11:56:11;;;;;;;6.03;5.40;;;2.70;99.90;;;;;;5092780;28;20652;-83
2020/12/25 11:58:38;;;;;;;8.57;5.70;;;2.60;99.90;;;;;;5085381;28;20655;-83
2020/12/25 12:01:05;;;;;;;7.35;5.40;;;2.50;99.90;;;;;;5078965;28;20571;-83
2020/12/25 12:03:32;;;;;;;7.50;5.95;;;2.70;99.90;;;;;;5081937;28;20187;-83
2020/12/25 12:05:59;;;;;;;9.00;6.38;;;2.70;99.90;;;;;;5075661;28;20284;-84
2020/12/25 12:08:25;;;;;;;9.50;6.57;;;2.90;99.90;;;;;;5081595;28;20237;-83
2020/12/25 12:10:52;;;;;;;7.35;6.57;;;2.90;99.90;;;;;;5079122;28;20203;-84
2020/12/25 12:13:18;;;;;;;8.55;6.25;;;3.00;99.90;;;;;;5079538;28;20182;-84
2020/12/25 12:15:45;;;;;;;7.30;6.15;;;2.90;99.90;;;;;;5074079;28;20219;-84
2020/12/25 12:18:13;;;;;;;11.05;6.53;;;2.90;99.90;;;;;;5078592;28;20556;-83
2020/12/25 12:20:39;;;;;;;8.65;6.90;;;2.90;99.90;;;;;;5091932;28;20813;-83
2020/12/25 12:23:05;;;;;;;9.25;5.75;;;2.80;99.90;;;;;;5093585;28;20191;-84
2020/12/25 12:25:32;;;;;;;10.13;6.22;;;2.70;99.90;;;;;;5092635;28;20198;-84
2020/12/25 12:27:58;;;;;;;10.30;7.63;;;2.70;99.90;;;;;;5091741;28;20183;-83
2020/12/25 12:30:25;;;;;;;8.40;6.30;;;3.00;99.90;;;;;;5081199;28;20206;-83
2020/12/25 12:32:51;;;;;;;7.60;6.45;;;3.10;99.90;;;;;;5077006;28;20734;-83
2020/12/25 12:35:19;;;;;;;8.60;6.70;;;2.90;99.90;;;;;;5083556;28;20556;-84
2020/12/25 12:37:46;;;;;;;7.40;6.18;;;2.60;99.90;;;;;;5074315;28;20203;-84
2020/12/25 12:40:14;;;;;;;7.20;6.47;;;2.70;99.90;;;;;;5085197;28;20199;-86
2020/12/25 12:42:40;;;;;;;6.20;4.88;;;2.80;99.90;;;;;;5073995;28;20204;-86
2020/12/25 12:45:09;;;;;;;7.60;5.00;;;2.50;99.90;;;;;;5079136;28;20192;-85
2020/12/25 12:47:35;;;;;;;7.35;5.80;;;2.50;99.90;;;;;;5088592;28;20191;-86
2020/12/25 12:50:02;;;;;;;9.52;6.55;;;2.60;99.90;;;;;;5085911;28;20226;-87
2020/12/25 12:52:29;;;;;;;6.55;5.35;;;2.80;99.90;;;;;;5087554;28;20226;-86
2020/12/25 12:54:55;;;;;;;7.45;5.80;;;2.90;99.90;;;;;;5094668;28;20202;-87